sensor_id;sensor_type;location;lat;lon;timestamp;pressure;altitude;pressure_sealevel;temperature;humidity
5812;BME280;2932;52.400;9.558;2022-09-09T00:03:52;100262.28;;;19.86;74.10
5812;BME280;2932;52.400;9.558;2022-09-09T00:06:33;100262.59;;;19.58;74.65
5812;BME280;2932;52.400;9.558;2022-09-09T00:09:11;100262.38;;;19.76;74.39
5812;BME280;2932;52.400;9.558;2022-09-09T00:14:09;100265.44;;;19.92;74.08
5812;BME280;2932;52.400;9.558;2022-09-09T00:16:41;100262.16;;;19.59;74.58
5812;BME280;2932;52.400;9.558;2022-09-09T00:21:53;100261.84;;;19.47;75.31
5812;BME280;2932;52.400;9.558;2022-09-09T00:24:42;100260.09;;;19.63;74.83
5812;BME280;2932;52.400;9.558;2022-09-09T00:27:14;100262.03;;;19.70;74.45
5812;BME280;2932;52.400;9.558;2022-09-09T00:29:53;100264.44;;;19.72;74.35
5812;BME280;2932;52.400;9.558;2022-09-09T00:32:20;100264.75;;;19.81;74.07
5812;BME280;2932;52.400;9.558;2022-09-09T00:34:52;100252.25;;;19.85;74.10
5812;BME280;2932;52.400;9.558;2022-09-09T00:37:20;100262.03;;;19.70;73.90
5812;BME280;2932;52.400;9.558;2022-09-09T00:39:48;100264.38;;;19.79;73.85
5812;BME280;2932;52.400;9.558;2022-09-09T00:42:15;100261.19;;;19.77;73.57
5812;BME280;2932;52.400;9.558;2022-09-09T00:47:53;100263.78;;;19.94;73.06
5812;BME280;2932;52.400;9.558;2022-09-09T00:58:13;100256.16;;;19.95;72.86
5812;BME280;2932;52.400;9.558;2022-09-09T01:00:49;100252.97;;;19.93;73.24
5812;BME280;2932;52.400;9.558;2022-09-09T01:11:23;100259.47;;;19.86;72.59
5812;BME280;2932;52.400;9.558;2022-09-09T01:13:56;100258.38;;;19.77;73.03
5812;BME280;2932;52.400;9.558;2022-09-09T01:16:26;100250.25;;;19.86;72.60
5812;BME280;2932;52.400;9.558;2022-09-09T01:18:54;100251.31;;;19.99;72.92
5812;BME280;2932;52.400;9.558;2022-09-09T01:26:30;100244.56;;;19.93;72.58
5812;BME280;2932;52.400;9.558;2022-09-09T01:28:57;100238.56;;;19.91;72.53
5812;BME280;2932;52.400;9.558;2022-09-09T01:31:31;100236.50;;;19.95;72.07
5812;BME280;2932;52.400;9.558;2022-09-09T01:33:58;100236.56;;;19.91;72.43
5812;BME280;2932;52.400;9.558;2022-09-09T01:36:37;100239.47;;;19.81;72.71
5812;BME280;2932;52.400;9.558;2022-09-09T01:39:05;100247.72;;;19.98;72.04
5812;BME280;2932;52.400;9.558;2022-09-09T01:41:30;100239.63;;;20.01;72.09
5812;BME280;2932;52.400;9.558;2022-09-09T01:43:56;100245.72;;;19.95;71.82
5812;BME280;2932;52.400;9.558;2022-09-09T01:46:22;100254.66;;;19.87;71.83
5812;BME280;2932;52.400;9.558;2022-09-09T01:48:50;100240.31;;;19.78;72.20
5812;BME280;2932;52.400;9.558;2022-09-09T01:51:16;100237.91;;;19.76;72.18
5812;BME280;2932;52.400;9.558;2022-09-09T01:53:43;100237.03;;;19.83;72.23
5812;BME280;2932;52.400;9.558;2022-09-09T01:56:18;100243.53;;;19.76;72.51
5812;BME280;2932;52.400;9.558;2022-09-09T02:01:48;100255.59;;;19.73;72.45
5812;BME280;2932;52.400;9.558;2022-09-09T02:04:38;100247.00;;;19.53;72.63
5812;BME280;2932;52.400;9.558;2022-09-09T02:07:14;100248.59;;;19.54;72.33
5812;BME280;2932;52.400;9.558;2022-09-09T02:09:47;100247.06;;;19.43;72.82
5812;BME280;2932;52.400;9.558;2022-09-09T02:12:19;100252.22;;;19.51;72.60
5812;BME280;2932;52.400;9.558;2022-09-09T02:14:56;100255.91;;;19.41;72.81
5812;BME280;2932;52.400;9.558;2022-09-09T02:17:28;100248.63;;;19.51;72.26
5812;BME280;2932;52.400;9.558;2022-09-09T02:20:05;100250.59;;;19.54;72.45
5812;BME280;2932;52.400;9.558;2022-09-09T02:22:33;100256.38;;;19.32;72.94
5812;BME280;2932;52.400;9.558;2022-09-09T02:25:00;100258.41;;;19.28;72.77
5812;BME280;2932;52.400;9.558;2022-09-09T02:27:27;100256.00;;;19.30;72.63
5812;BME280;2932;52.400;9.558;2022-09-09T02:29:54;100249.56;;;19.30;72.99
5812;BME280;2932;52.400;9.558;2022-09-09T02:32:23;100245.88;;;19.40;72.51
5812;BME280;2932;52.400;9.558;2022-09-09T02:35:03;100248.31;;;19.38;72.64
5812;BME280;2932;52.400;9.558;2022-09-09T02:37:41;100229.97;;;19.26;72.43
5812;BME280;2932;52.400;9.558;2022-09-09T02:40:10;100236.00;;;19.25;72.97
5812;BME280;2932;52.400;9.558;2022-09-09T02:42:43;100242.69;;;19.38;72.78
5812;BME280;2932;52.400;9.558;2022-09-09T02:45:12;100244.00;;;19.26;72.84
5812;BME280;2932;52.400;9.558;2022-09-09T02:50:33;100255.78;;;19.11;73.09
5812;BME280;2932;52.400;9.558;2022-09-09T02:53:10;100255.25;;;19.23;72.74
5812;BME280;2932;52.400;9.558;2022-09-09T02:56:05;100242.19;;;19.06;73.03
5812;BME280;2932;52.400;9.558;2022-09-09T02:58:34;100242.53;;;19.11;73.71
5812;BME280;2932;52.400;9.558;2022-09-09T03:01:00;100246.56;;;19.10;73.35
5812;BME280;2932;52.400;9.558;2022-09-09T03:03:28;100246.53;;;19.14;73.58
5812;BME280;2932;52.400;9.558;2022-09-09T03:05:54;100246.53;;;19.14;73.39
5812;BME280;2932;52.400;9.558;2022-09-09T03:08:19;100260.97;;;19.12;73.55
5812;BME280;2932;52.400;9.558;2022-09-09T03:10:45;100252.91;;;19.18;73.37
5812;BME280;2932;52.400;9.558;2022-09-09T03:13:10;100257.03;;;19.03;73.72
5812;BME280;2932;52.400;9.558;2022-09-09T03:15:37;100266.56;;;19.12;73.53
5812;BME280;2932;52.400;9.558;2022-09-09T03:18:03;100269.41;;;19.09;73.86
5812;BME280;2932;52.400;9.558;2022-09-09T03:20:29;100270.94;;;19.17;73.73
5812;BME280;2932;52.400;9.558;2022-09-09T03:22:55;100270.91;;;19.20;73.66
5812;BME280;2932;52.400;9.558;2022-09-09T03:25:21;100265.59;;;19.33;73.36
5812;BME280;2932;52.400;9.558;2022-09-09T03:27:49;100261.19;;;19.32;73.06
5812;BME280;2932;52.400;9.558;2022-09-09T03:30:15;100258.34;;;19.36;73.32
5812;BME280;2932;52.400;9.558;2022-09-09T03:32:41;100260.75;;;19.37;73.24
5812;BME280;2932;52.400;9.558;2022-09-09T03:35:07;100253.59;;;19.29;73.38
5812;BME280;2932;52.400;9.558;2022-09-09T03:37:32;100253.53;;;19.36;73.79
5812;BME280;2932;52.400;9.558;2022-09-09T03:39:57;100261.44;;;19.48;73.80
5812;BME280;2932;52.400;9.558;2022-09-09T03:42:25;100255.16;;;19.33;73.85
5812;BME280;2932;52.400;9.558;2022-09-09T03:44:50;100253.94;;;19.35;74.06
5812;BME280;2932;52.400;9.558;2022-09-09T03:47:20;100250.28;;;19.41;73.92
5812;BME280;2932;52.400;9.558;2022-09-09T03:49:47;100253.91;;;19.38;73.69
5812;BME280;2932;52.400;9.558;2022-09-09T03:52:13;100255.06;;;19.44;74.10
5812;BME280;2932;52.400;9.558;2022-09-09T03:54:39;100259.13;;;19.40;73.96
5812;BME280;2932;52.400;9.558;2022-09-09T03:57:06;100257.94;;;19.37;74.16
5812;BME280;2932;52.400;9.558;2022-09-09T03:59:31;100243.75;;;19.58;73.73
5812;BME280;2932;52.400;9.558;2022-09-09T04:01:57;100248.25;;;19.45;74.04
5812;BME280;2932;52.400;9.558;2022-09-09T04:04:24;100254.09;;;19.61;73.85
5812;BME280;2932;52.400;9.558;2022-09-09T04:06:51;100248.66;;;19.44;73.92
5812;BME280;2932;52.400;9.558;2022-09-09T04:09:16;100249.38;;;19.55;73.81
5812;BME280;2932;52.400;9.558;2022-09-09T04:11:42;100253.84;;;19.45;74.11
5812;BME280;2932;52.400;9.558;2022-09-09T04:14:07;100249.72;;;19.60;73.93
5812;BME280;2932;52.400;9.558;2022-09-09T04:16:33;100248.88;;;19.63;73.37
5812;BME280;2932;52.400;9.558;2022-09-09T04:18:59;100248.25;;;19.45;74.12
5812;BME280;2932;52.400;9.558;2022-09-09T04:21:25;100250.50;;;19.61;73.75
5812;BME280;2932;52.400;9.558;2022-09-09T04:23:51;100251.44;;;19.51;74.09
5812;BME280;2932;52.400;9.558;2022-09-09T04:26:17;100252.63;;;19.50;73.88
5812;BME280;2932;52.400;9.558;2022-09-09T04:28:42;100250.19;;;19.55;73.62
5812;BME280;2932;52.400;9.558;2022-09-09T04:31:11;100255.78;;;19.55;73.96
5812;BME280;2932;52.400;9.558;2022-09-09T04:33:39;100263.81;;;19.57;74.03
5812;BME280;2932;52.400;9.558;2022-09-09T04:36:05;100260.25;;;19.46;74.65
5812;BME280;2932;52.400;9.558;2022-09-09T04:38:33;100249.91;;;19.39;75.14
5812;BME280;2932;52.400;9.558;2022-09-09T04:40:58;100256.94;;;19.17;75.44
5812;BME280;2932;52.400;9.558;2022-09-09T04:43:24;100263.81;;;19.09;75.59
5812;BME280;2932;52.400;9.558;2022-09-09T04:45:52;100265.41;;;19.06;76.18
5812;BME280;2932;52.400;9.558;2022-09-09T04:48:18;100269.88;;;19.00;76.21
5812;BME280;2932;52.400;9.558;2022-09-09T04:50:53;100272.97;;;19.13;76.31
5812;BME280;2932;52.400;9.558;2022-09-09T04:53:19;100268.25;;;19.03;76.16
5812;BME280;2932;52.400;9.558;2022-09-09T04:55:44;100276.59;;;19.13;76.33
5812;BME280;2932;52.400;9.558;2022-09-09T04:58:09;100275.97;;;19.36;75.93
5812;BME280;2932;52.400;9.558;2022-09-09T05:00:35;100272.25;;;19.05;76.33
5812;BME280;2932;52.400;9.558;2022-09-09T05:03:06;100274.59;;;19.10;76.70
5812;BME280;2932;52.400;9.558;2022-09-09T05:05:34;100274.13;;;19.19;76.33
5812;BME280;2932;52.400;9.558;2022-09-09T05:08:07;100266.25;;;19.48;76.12
5812;BME280;2932;52.400;9.558;2022-09-09T05:10:34;100269.56;;;19.36;75.79
5812;BME280;2932;52.400;9.558;2022-09-09T05:13:01;100273.47;;;19.49;75.38
5812;BME280;2932;52.400;9.558;2022-09-09T05:15:26;100273.75;;;19.61;74.93
5812;BME280;2932;52.400;9.558;2022-09-09T05:17:52;100278.66;;;19.50;75.09
5812;BME280;2932;52.400;9.558;2022-09-09T05:20:20;100287.72;;;19.20;75.76
5812;BME280;2932;52.400;9.558;2022-09-09T05:22:46;100281.56;;;19.40;75.66
5812;BME280;2932;52.400;9.558;2022-09-09T05:25:11;100287.09;;;19.54;75.14
5812;BME280;2932;52.400;9.558;2022-09-09T05:27:37;100291.66;;;19.30;75.49
5812;BME280;2932;52.400;9.558;2022-09-09T05:30:03;100288.69;;;19.55;75.38
5812;BME280;2932;52.400;9.558;2022-09-09T05:32:30;100296.41;;;19.37;74.94
5812;BME280;2932;52.400;9.558;2022-09-09T05:34:58;100292.72;;;19.47;75.06
5812;BME280;2932;52.400;9.558;2022-09-09T05:37:24;100288.78;;;19.37;75.30
5812;BME280;2932;52.400;9.558;2022-09-09T05:39:49;100288.19;;;19.15;75.95
5812;BME280;2932;52.400;9.558;2022-09-09T05:42:15;100292.34;;;18.93;77.04
5812;BME280;2932;52.400;9.558;2022-09-09T05:44:40;100301.03;;;19.13;76.24
5812;BME280;2932;52.400;9.558;2022-09-09T05:47:07;100299.13;;;18.95;77.00
5812;BME280;2932;52.400;9.558;2022-09-09T05:49:33;100307.91;;;19.01;76.80
5812;BME280;2932;52.400;9.558;2022-09-09T05:51:58;100304.22;;;19.15;77.13
5812;BME280;2932;52.400;9.558;2022-09-09T05:54:24;100309.72;;;19.25;76.54
5812;BME280;2932;52.400;9.558;2022-09-09T05:56:49;100301.69;;;19.27;76.79
5812;BME280;2932;52.400;9.558;2022-09-09T05:59:15;100305.34;;;19.21;76.07
5812;BME280;2932;52.400;9.558;2022-09-09T06:01:41;100305.72;;;19.23;75.95
5812;BME280;2932;52.400;9.558;2022-09-09T06:04:07;100305.28;;;19.28;76.08
5812;BME280;2932;52.400;9.558;2022-09-09T06:06:35;100295.31;;;19.23;76.25
5812;BME280;2932;52.400;9.558;2022-09-09T06:09:02;100307.72;;;19.26;76.67
5812;BME280;2932;52.400;9.558;2022-09-09T06:11:30;100311.38;;;19.19;76.20
5812;BME280;2932;52.400;9.558;2022-09-09T06:13:59;100297.16;;;19.44;75.86
5812;BME280;2932;52.400;9.558;2022-09-09T06:16:26;100299.97;;;19.44;75.88
5812;BME280;2932;52.400;9.558;2022-09-09T06:18:53;100297.91;;;19.48;75.61
5812;BME280;2932;52.400;9.558;2022-09-09T06:23:51;100287.50;;;19.49;75.90
5812;BME280;2932;52.400;9.558;2022-09-09T06:26:20;100287.13;;;19.47;76.13
5812;BME280;2932;52.400;9.558;2022-09-09T06:28:46;100287.75;;;19.65;75.86
5812;BME280;2932;52.400;9.558;2022-09-09T06:31:14;100278.97;;;19.59;75.92
5812;BME280;2932;52.400;9.558;2022-09-09T06:33:41;100286.88;;;19.72;75.08
5812;BME280;2932;52.400;9.558;2022-09-09T06:36:18;100291.81;;;19.60;75.81
5812;BME280;2932;52.400;9.558;2022-09-09T06:38:44;100301.44;;;19.59;75.47
5812;BME280;2932;52.400;9.558;2022-09-09T06:41:10;100301.38;;;19.67;75.62
5812;BME280;2932;52.400;9.558;2022-09-09T06:43:36;100300.72;;;19.48;76.25
5812;BME280;2932;52.400;9.558;2022-09-09T06:46:11;100310.81;;;19.42;76.53
5812;BME280;2932;52.400;9.558;2022-09-09T06:48:38;100297.00;;;19.14;77.67
5812;BME280;2932;52.400;9.558;2022-09-09T06:51:08;100302.53;;;19.21;77.47
5812;BME280;2932;52.400;9.558;2022-09-09T06:53:35;100292.28;;;19.55;77.67
5812;BME280;2932;52.400;9.558;2022-09-09T06:58:39;100304.25;;;19.59;77.31
5812;BME280;2932;52.400;9.558;2022-09-09T07:01:16;100290.53;;;19.69;76.94
5812;BME280;2932;52.400;9.558;2022-09-09T07:03:45;100295.38;;;20.02;76.19
5812;BME280;2932;52.400;9.558;2022-09-09T07:06:20;100292.88;;;20.11;76.29
5812;BME280;2932;52.400;9.558;2022-09-09T07:08:54;100304.16;;;20.08;75.77
5812;BME280;2932;52.400;9.558;2022-09-09T07:11:20;100304.28;;;19.97;76.62
5812;BME280;2932;52.400;9.558;2022-09-09T07:13:47;100300.34;;;20.25;75.68
5812;BME280;2932;52.400;9.558;2022-09-09T07:16:15;100299.72;;;20.44;75.29
5812;BME280;2932;52.400;9.558;2022-09-09T07:18:42;100301.88;;;20.63;74.80
5812;BME280;2932;52.400;9.558;2022-09-09T07:21:10;100302.78;;;20.57;74.74
5812;BME280;2932;52.400;9.558;2022-09-09T07:23:37;100303.44;;;20.95;74.53
5812;BME280;2932;52.400;9.558;2022-09-09T07:26:07;100296.88;;;20.78;74.11
5812;BME280;2932;52.400;9.558;2022-09-09T07:28:33;100305.28;;;21.05;74.09
5812;BME280;2932;52.400;9.558;2022-09-09T07:31:00;100306.41;;;21.11;74.32
5812;BME280;2932;52.400;9.558;2022-09-09T07:33:27;100305.59;;;21.11;73.49
5812;BME280;2932;52.400;9.558;2022-09-09T07:36:04;100311.34;;;21.04;73.62
5812;BME280;2932;52.400;9.558;2022-09-09T07:38:30;100306.16;;;20.75;73.19
5812;BME280;2932;52.400;9.558;2022-09-09T07:41:06;100310.66;;;21.23;73.65
5812;BME280;2932;52.400;9.558;2022-09-09T07:43:33;100307.50;;;21.44;73.13
5812;BME280;2932;52.400;9.558;2022-09-09T07:45:59;100305.84;;;21.47;71.73
5812;BME280;2932;52.400;9.558;2022-09-09T07:48:27;100303.56;;;21.61;71.70
5812;BME280;2932;52.400;9.558;2022-09-09T07:50:52;100317.59;;;21.42;71.42
5812;BME280;2932;52.400;9.558;2022-09-09T07:53:17;100312.50;;;21.33;71.20
5812;BME280;2932;52.400;9.558;2022-09-09T07:55:45;100321.75;;;21.57;70.99
5812;BME280;2932;52.400;9.558;2022-09-09T07:58:10;100313.66;;;21.82;70.34
5812;BME280;2932;52.400;9.558;2022-09-09T08:00:35;100314.72;;;21.45;70.45
5812;BME280;2932;52.400;9.558;2022-09-09T08:03:01;100315.72;;;21.58;71.28
5812;BME280;2932;52.400;9.558;2022-09-09T08:05:27;100318.19;;;21.76;70.23
5812;BME280;2932;52.400;9.558;2022-09-09T08:07:53;100320.34;;;21.45;71.41
5812;BME280;2932;52.400;9.558;2022-09-09T08:10:18;100322.66;;;21.74;71.30
5812;BME280;2932;52.400;9.558;2022-09-09T08:12:44;100315.81;;;21.75;70.76
5812;BME280;2932;52.400;9.558;2022-09-09T08:15:09;100321.16;;;22.12;70.06
5812;BME280;2932;52.400;9.558;2022-09-09T08:17:34;100320.53;;;22.24;69.94
5812;BME280;2932;52.400;9.558;2022-09-09T08:20:00;100325.28;;;22.08;69.51
5812;BME280;2932;52.400;9.558;2022-09-09T08:22:29;100322.03;;;22.09;69.21
5812;BME280;2932;52.400;9.558;2022-09-09T08:24:54;100317.19;;;22.10;68.89
5812;BME280;2932;52.400;9.558;2022-09-09T08:27:20;100334.03;;;22.13;68.67
5812;BME280;2932;52.400;9.558;2022-09-09T08:29:45;100319.50;;;22.15;67.86
5812;BME280;2932;52.400;9.558;2022-09-09T08:32:10;100328.13;;;22.27;67.82
5812;BME280;2932;52.400;9.558;2022-09-09T08:34:36;100327.56;;;21.93;68.43
5812;BME280;2932;52.400;9.558;2022-09-09T08:37:01;100334.97;;;21.83;69.90
5812;BME280;2932;52.400;9.558;2022-09-09T08:39:26;100344.44;;;21.93;69.71
5812;BME280;2932;52.400;9.558;2022-09-09T08:52:30;100351.72;;;22.14;68.72
5812;BME280;2932;52.400;9.558;2022-09-09T08:55:10;100362.47;;;21.99;68.30
5812;BME280;2932;52.400;9.558;2022-09-09T08:57:38;100357.44;;;22.10;67.70
5812;BME280;2932;52.400;9.558;2022-09-09T09:00:04;100355.84;;;22.09;68.51
5812;BME280;2932;52.400;9.558;2022-09-09T09:08:08;100360.94;;;21.21;69.14
5812;BME280;2932;52.400;9.558;2022-09-09T09:11:04;100364.97;;;21.70;69.07
5812;BME280;2932;52.400;9.558;2022-09-09T09:13:40;100372.31;;;21.87;68.95
5812;BME280;2932;52.400;9.558;2022-09-09T09:18:47;100376.22;;;22.17;67.49
5812;BME280;2932;52.400;9.558;2022-09-09T09:21:16;100364.97;;;22.37;67.58
5812;BME280;2932;52.400;9.558;2022-09-09T09:23:58;100370.41;;;22.04;68.06
5812;BME280;2932;52.400;9.558;2022-09-09T09:26:30;100365.38;;;22.15;67.89
5812;BME280;2932;52.400;9.558;2022-09-09T09:28:58;100369.03;;;22.36;67.83
5812;BME280;2932;52.400;9.558;2022-09-09T09:31:24;100361.41;;;21.89;68.63
5812;BME280;2932;52.400;9.558;2022-09-09T09:33:55;100360.63;;;21.89;68.82
5812;BME280;2932;52.400;9.558;2022-09-09T09:36:33;100359.28;;;21.74;69.38
5812;BME280;2932;52.400;9.558;2022-09-09T09:38:59;100351.06;;;22.06;68.20
5812;BME280;2932;52.400;9.558;2022-09-09T09:43:55;100344.34;;;22.40;66.83
5812;BME280;2932;52.400;9.558;2022-09-09T09:46:23;100348.34;;;22.22;67.50
5812;BME280;2932;52.400;9.558;2022-09-09T09:48:58;100354.56;;;22.53;66.82
5812;BME280;2932;52.400;9.558;2022-09-09T09:51:24;100349.69;;;22.93;65.95
5812;BME280;2932;52.400;9.558;2022-09-09T09:53:50;100337.31;;;22.87;65.53
5812;BME280;2932;52.400;9.558;2022-09-09T09:56:26;100336.69;;;23.16;64.63
5812;BME280;2932;52.400;9.558;2022-09-09T09:58:54;100341.47;;;23.51;63.93
5812;BME280;2932;52.400;9.558;2022-09-09T10:01:28;100347.97;;;23.16;64.92
5812;BME280;2932;52.400;9.558;2022-09-09T10:03:58;100348.13;;;23.09;63.47
5812;BME280;2932;52.400;9.558;2022-09-09T10:08:59;100337.31;;;23.72;63.52
5812;BME280;2932;52.400;9.558;2022-09-09T10:11:38;100329.72;;;23.37;63.78
5812;BME280;2932;52.400;9.558;2022-09-09T10:14:20;100325.94;;;23.43;64.71
5812;BME280;2932;52.400;9.558;2022-09-09T10:19:34;100323.59;;;24.32;61.84
5812;BME280;2932;52.400;9.558;2022-09-09T10:27:53;100320.34;;;24.17;62.11
5812;BME280;2932;52.400;9.558;2022-09-09T10:33:18;100335.56;;;24.07;62.30
5812;BME280;2932;52.400;9.558;2022-09-09T10:35:57;100324.84;;;23.86;62.18
5812;BME280;2932;52.400;9.558;2022-09-09T10:41:32;100319.22;;;23.37;61.88
5812;BME280;2932;52.400;9.558;2022-09-09T10:44:31;100312.97;;;23.62;61.44
5812;BME280;2932;52.400;9.558;2022-09-09T10:52:32;100342.22;;;23.19;63.97
5812;BME280;2932;52.400;9.558;2022-09-09T10:55:13;100353.47;;;22.47;64.29
5812;BME280;2932;52.400;9.558;2022-09-09T10:57:43;100345.50;;;22.42;64.16
5812;BME280;2932;52.400;9.558;2022-09-09T11:00:24;100341.03;;;22.45;63.08
5812;BME280;2932;52.400;9.558;2022-09-09T11:03:01;100331.66;;;22.32;63.11
5812;BME280;2932;52.400;9.558;2022-09-09T11:05:44;100333.75;;;22.27;63.40
5812;BME280;2932;52.400;9.558;2022-09-09T11:08:38;100350.94;;;22.13;63.86
5812;BME280;2932;52.400;9.558;2022-09-09T11:11:41;100352.88;;;22.16;64.30
5812;BME280;2932;52.400;9.558;2022-09-09T11:14:19;100338.53;;;22.31;64.50
5812;BME280;2932;52.400;9.558;2022-09-09T11:16:56;100336.00;;;22.36;64.05
5812;BME280;2932;52.400;9.558;2022-09-09T11:19:35;100332.63;;;22.81;63.79
5812;BME280;2932;52.400;9.558;2022-09-09T11:24:58;100312.41;;;23.02;63.90
5812;BME280;2932;52.400;9.558;2022-09-09T11:40:41;100340.88;;;22.72;65.93
5812;BME280;2932;52.400;9.558;2022-09-09T11:45:36;100335.72;;;22.31;65.66
5812;BME280;2932;52.400;9.558;2022-09-09T11:48:03;100345.75;;;22.32;65.44
5812;BME280;2932;52.400;9.558;2022-09-09T11:50:34;100341.00;;;22.05;65.39
5812;BME280;2932;52.400;9.558;2022-09-09T11:53:20;100339.06;;;21.79;65.82
5812;BME280;2932;52.400;9.558;2022-09-09T11:56:10;100343.22;;;21.94;65.44
5812;BME280;2932;52.400;9.558;2022-09-09T11:58:41;100343.84;;;21.82;65.05
5812;BME280;2932;52.400;9.558;2022-09-09T12:01:15;100343.59;;;21.96;64.59
5812;BME280;2932;52.400;9.558;2022-09-09T12:03:45;100342.88;;;21.92;65.37
5812;BME280;2932;52.400;9.558;2022-09-09T12:06:41;100352.84;;;21.50;65.44
5812;BME280;2932;52.400;9.558;2022-09-09T12:09:19;100354.31;;;21.58;65.01
5812;BME280;2932;52.400;9.558;2022-09-09T12:11:45;100354.25;;;21.61;64.97
5812;BME280;2932;52.400;9.558;2022-09-09T12:14:39;100357.06;;;21.38;65.42
5812;BME280;2932;52.400;9.558;2022-09-09T12:17:24;100354.19;;;22.12;63.46
5812;BME280;2932;52.400;9.558;2022-09-09T12:23:15;100366.78;;;22.86;61.62
5812;BME280;2932;52.400;9.558;2022-09-09T12:28:21;100350.81;;;23.16;61.00
5812;BME280;2932;52.400;9.558;2022-09-09T12:33:22;100348.34;;;23.83;59.52
5812;BME280;2932;52.400;9.558;2022-09-09T12:35:55;100340.47;;;24.36;58.45
5812;BME280;2932;52.400;9.558;2022-09-09T12:38:34;100336.94;;;24.73;58.01
5812;BME280;2932;52.400;9.558;2022-09-09T12:41:01;100322.22;;;24.66;57.72
5812;BME280;2932;52.400;9.558;2022-09-09T12:43:27;100323.00;;;24.66;58.33
5812;BME280;2932;52.400;9.558;2022-09-09T12:46:10;100315.88;;;24.62;57.40
5812;BME280;2932;52.400;9.558;2022-09-09T12:48:48;100311.56;;;24.82;57.47
5812;BME280;2932;52.400;9.558;2022-09-09T12:51:21;100315.00;;;25.41;57.54
5812;BME280;2932;52.400;9.558;2022-09-09T12:53:51;100312.78;;;25.83;55.63
5812;BME280;2932;52.400;9.558;2022-09-09T12:56:21;100323.69;;;26.28;54.89
5812;BME280;2932;52.400;9.558;2022-09-09T12:58:50;100314.84;;;26.04;53.84
5812;BME280;2932;52.400;9.558;2022-09-09T13:03:47;100308.53;;;24.89;57.24
5812;BME280;2932;52.400;9.558;2022-09-09T13:06:19;100317.66;;;24.55;57.86
5812;BME280;2932;52.400;9.558;2022-09-09T13:08:45;100309.03;;;24.34;58.70
5812;BME280;2932;52.400;9.558;2022-09-09T13:11:14;100315.94;;;24.16;59.39
5812;BME280;2932;52.400;9.558;2022-09-09T13:13:43;100310.63;;;23.89;60.07
5812;BME280;2932;52.400;9.558;2022-09-09T13:16:25;100302.19;;;23.73;61.03
5812;BME280;2932;52.400;9.558;2022-09-09T13:18:52;100296.06;;;23.91;61.29
5812;BME280;2932;52.400;9.558;2022-09-09T13:21:18;100300.81;;;23.94;61.04
5812;BME280;2932;52.400;9.558;2022-09-09T13:23:49;100302.50;;;23.91;61.86
5812;BME280;2932;52.400;9.558;2022-09-09T13:28:47;100292.28;;;24.10;61.97
5812;BME280;2932;52.400;9.558;2022-09-09T13:31:28;100300.81;;;23.94;62.27
5812;BME280;2932;52.400;9.558;2022-09-09T13:33:54;100291.00;;;23.99;62.44
5812;BME280;2932;52.400;9.558;2022-09-09T13:36:30;100283.56;;;24.34;62.11
5812;BME280;2932;52.400;9.558;2022-09-09T13:38:58;100290.41;;;24.20;62.26
5812;BME280;2932;52.400;9.558;2022-09-09T13:41:34;100289.13;;;24.50;61.77
5812;BME280;2932;52.400;9.558;2022-09-09T13:44:01;100281.25;;;25.34;60.64
5812;BME280;2932;52.400;9.558;2022-09-09T13:49:00;100290.78;;;26.52;56.84
5812;BME280;2932;52.400;9.558;2022-09-09T13:51:33;100282.50;;;26.36;56.52
5812;BME280;2932;52.400;9.558;2022-09-09T13:54:00;100286.06;;;26.89;54.91
5812;BME280;2932;52.400;9.558;2022-09-09T13:56:26;100288.25;;;26.85;54.31
5812;BME280;2932;52.400;9.558;2022-09-09T13:58:51;100284.97;;;25.90;56.50
5812;BME280;2932;52.400;9.558;2022-09-09T14:01:17;100277.25;;;25.56;56.99
5812;BME280;2932;52.400;9.558;2022-09-09T14:03:42;100292.22;;;25.44;57.11
5812;BME280;2932;52.400;9.558;2022-09-09T14:06:09;100280.56;;;24.91;57.25
5812;BME280;2932;52.400;9.558;2022-09-09T14:08:35;100281.41;;;25.05;57.39
5812;BME280;2932;52.400;9.558;2022-09-09T14:11:03;100281.16;;;25.12;57.63
5812;BME280;2932;52.400;9.558;2022-09-09T14:13:29;100283.03;;;24.39;58.81
5812;BME280;2932;52.400;9.558;2022-09-09T14:15:54;100276.06;;;25.07;57.66
5812;BME280;2932;52.400;9.558;2022-09-09T14:18:19;100276.06;;;25.67;56.50
5812;BME280;2932;52.400;9.558;2022-09-09T14:20:47;100274.66;;;26.80;54.09
5812;BME280;2932;52.400;9.558;2022-09-09T14:23:13;100267.00;;;27.39;53.25
5812;BME280;2932;52.400;9.558;2022-09-09T14:25:40;100261.44;;;27.17;52.99
5812;BME280;2932;52.400;9.558;2022-09-09T14:28:09;100269.28;;;27.63;52.74
5812;BME280;2932;52.400;9.558;2022-09-09T14:30:34;100265.88;;;26.87;53.27
5812;BME280;2932;52.400;9.558;2022-09-09T14:33:00;100258.22;;;27.65;51.61
5812;BME280;2932;52.400;9.558;2022-09-09T14:35:25;100254.06;;;27.38;52.19
5812;BME280;2932;52.400;9.558;2022-09-09T14:37:50;100256.34;;;27.89;51.73
5812;BME280;2932;52.400;9.558;2022-09-09T14:40:16;100265.47;;;27.47;52.43
5812;BME280;2932;52.400;9.558;2022-09-09T14:42:42;100266.38;;;26.95;52.90
5812;BME280;2932;52.400;9.558;2022-09-09T14:45:08;100265.09;;;26.87;53.29
5812;BME280;2932;52.400;9.558;2022-09-09T14:47:33;100254.78;;;27.02;53.09
5812;BME280;2932;52.400;9.558;2022-09-09T14:49:59;100263.94;;;26.75;53.09
5812;BME280;2932;52.400;9.558;2022-09-09T14:52:26;100263.50;;;26.77;53.43
5812;BME280;2932;52.400;9.558;2022-09-09T14:54:52;100260.38;;;26.93;52.49
5812;BME280;2932;52.400;9.558;2022-09-09T14:57:17;100259.22;;;27.12;52.58
5812;BME280;2932;52.400;9.558;2022-09-09T14:59:43;100255.44;;;26.84;53.76
5812;BME280;2932;52.400;9.558;2022-09-09T15:02:09;100253.53;;;26.72;53.66
5812;BME280;2932;52.400;9.558;2022-09-09T15:04:34;100262.06;;;26.81;53.75
5812;BME280;2932;52.400;9.558;2022-09-09T15:07:00;100256.72;;;27.23;52.54
5812;BME280;2932;52.400;9.558;2022-09-09T15:09:25;100251.03;;;27.23;52.00
5812;BME280;2932;52.400;9.558;2022-09-09T15:11:51;100262.72;;;26.85;52.74
5812;BME280;2932;52.400;9.558;2022-09-09T15:14:16;100258.72;;;26.43;53.76
5812;BME280;2932;52.400;9.558;2022-09-09T15:16:42;100253.81;;;26.34;53.98
5812;BME280;2932;52.400;9.558;2022-09-09T15:19:08;100253.19;;;26.17;54.71
5812;BME280;2932;52.400;9.558;2022-09-09T15:21:36;100256.53;;;26.03;55.16
5812;BME280;2932;52.400;9.558;2022-09-09T15:24:01;100260.63;;;26.02;55.28